Time;durP1;ratioP1;P1;durP2;ratioP2;P2;SDS_P1;SDS_P2;PMS_P1;PMS_P2;Temp;Humidity;BMP_temperature;BMP_pressure;BME280_temperature;BME280_humidity;BME280_pressure;Samples;Min_cycle;Max_cycle;Signal;HPM_P1;HPM_P2
2021/07/14 00:00:59;;;;;;;4.95;3.33;;;;;;;27.17;38.79;100842.25;4397883;32;20089;-79
2021/07/14 00:03:26;;;;;;;5.35;3.60;;;;;;;27.25;38.81;100830.84;4401539;32;20449;-78
2021/07/14 00:05:52;;;;;;;6.85;3.50;;;;;;;27.31;38.77;100826.53;4396963;32;20029;-78
2021/07/14 00:08:18;;;;;;;5.78;3.10;;;;;;;27.25;38.84;100817.19;4385065;32;20176;-78
2021/07/14 00:10:45;;;;;;;5.68;3.15;;;;;;;27.10;38.82;100823.47;4399699;32;20431;-78
2021/07/14 00:24:09;;;;;;;4.68;2.90;;;;;;;27.44;38.25;100834.44;4435883;32;20468;-78
2021/07/14 00:26:36;;;;;;;5.37;2.83;;;;;;;27.01;38.68;100817.31;4436881;32;20037;-79
2021/07/14 00:29:05;;;;;;;6.20;3.28;;;;;;;26.96;38.70;100821.88;4436400;32;20072;-78
2021/07/14 00:31:31;;;;;;;5.53;3.40;;;;;;;27.04;38.43;100819.91;4436571;32;20116;-79
2021/07/14 00:33:57;;;;;;;4.28;2.90;;;;;;;26.94;38.81;100821.62;4439025;32;20089;-78
2021/07/14 00:36:23;;;;;;;5.72;2.95;;;;;;;26.92;38.75;100829.28;4438581;32;20094;-79
2021/07/14 00:38:49;;;;;;;5.28;3.33;;;;;;;26.76;39.09;100810.13;4440358;32;20479;-79
2021/07/14 00:41:17;;;;;;;7.07;3.35;;;;;;;26.82;38.94;100825.28;4437887;32;20105;-79
2021/07/14 00:43:43;;;;;;;6.15;3.47;;;;;;;26.94;38.81;100817.97;4435117;32;20464;-79
2021/07/14 00:46:26;;;;;;;5.43;3.55;;;;;;;26.73;39.09;100819.91;4439922;32;20061;-79
2021/07/14 00:48:55;;;;;;;5.72;2.90;;;;;;;27.01;38.64;100823.87;4438473;32;20065;-80
2021/07/14 00:51:21;;;;;;;5.50;2.90;;;;;;;26.77;39.22;100829.00;4437313;32;20033;-80
2021/07/14 00:53:48;;;;;;;4.55;3.22;;;;;;;26.19;39.87;100823.03;4434783;32;20060;-80
2021/07/14 00:56:14;;;;;;;5.97;3.35;;;;;;;26.00;40.29;100828.00;4438361;32;20038;-80
2021/07/14 00:58:40;;;;;;;5.60;3.20;;;;;;;26.07;40.27;100818.72;4435528;32;20078;-79
2021/07/14 01:01:06;;;;;;;7.07;3.47;;;;;;;26.13;40.13;100819.44;4433673;32;20150;-79
2021/07/14 01:03:39;;;;;;;5.70;2.87;;;;;;;26.18;39.86;100826.47;4424217;32;20110;-79
2021/07/14 01:06:14;;;;;;;6.57;3.00;;;;;;;26.33;39.44;100818.91;4422179;32;20059;-79
2021/07/14 01:08:48;;;;;;;5.62;2.62;;;;;;;26.35;39.39;100822.00;4418647;32;20030;-80
2021/07/14 01:11:17;;;;;;;;;;;;;;;26.29;39.44;100829.22;4419845;32;20541;-78
2021/07/14 01:16:23;;;;;;;5.05;2.60;;;;;;;26.80;38.78;100837.37;3981093;32;15023700;-78
2021/07/14 01:21:43;;;;;;;6.12;2.75;;;;;;;26.86;38.59;100834.38;3982499;32;15023635;-78
2021/07/14 01:29:33;;;;;;;3.95;2.65;;;;;;;26.74;38.66;100844.53;3982985;32;15024116;-79
2021/07/14 01:32:02;;;;;;;3.55;2.75;;;;;;;26.74;38.66;100844.53;4431659;32;20120;-78
2021/07/14 01:34:29;;;;;;;8.00;3.35;;;;;;;26.44;39.19;100844.72;4436508;32;20029;-78
2021/07/14 01:36:59;;;;;;;6.15;3.08;;;;;;;26.10;39.60;100846.50;4434724;32;20081;-79
2021/07/14 01:39:28;;;;;;;7.05;3.25;;;;;;;26.36;39.09;100848.78;4435087;32;20130;-79
2021/07/14 01:41:56;;;;;;;5.97;2.95;;;;;;;26.45;39.08;100848.38;4434209;32;20124;-78
2021/07/14 01:44:25;;;;;;;6.35;2.92;;;;;;;26.27;39.36;100855.72;4436178;32;20060;-79
2021/07/14 01:46:57;;;;;;;4.75;3.00;;;;;;;26.33;39.32;100852.75;4434619;32;20474;-80
2021/07/14 01:49:24;;;;;;;5.22;2.85;;;;;;;26.16;39.45;100852.97;4434758;32;20448;-80
2021/07/14 01:51:56;;;;;;;4.60;2.95;;;;;;;26.30;39.37;100853.84;4430537;32;20067;-79
2021/07/14 01:54:24;;;;;;;8.82;3.03;;;;;;;26.43;39.16;100856.81;4432319;32;20073;-79
2021/07/14 01:56:52;;;;;;;4.93;3.17;;;;;;;26.21;39.78;100865.75;4436574;32;20049;-79
2021/07/14 01:59:18;;;;;;;5.35;3.15;;;;;;;26.21;39.71;100862.88;4434247;32;20064;-79
2021/07/14 02:01:45;;;;;;;4.35;3.10;;;;;;;26.15;39.83;100865.84;4430217;32;20429;-79
2021/07/14 02:04:44;;;;;;;5.15;3.40;;;;;;;26.02;40.00;100862.06;4430085;32;20505;-79
2021/07/14 02:07:16;;;;;;;6.43;3.33;;;;;;;26.20;39.86;100867.84;4428874;32;20055;-79
2021/07/14 02:09:45;;;;;;;6.80;3.45;;;;;;;26.32;39.55;100862.75;4431135;32;20101;-79
2021/07/14 02:12:19;;;;;;;5.28;3.28;;;;;;;26.11;40.21;100855.94;4428500;32;20066;-79
2021/07/14 02:14:50;;;;;;;6.20;3.72;;;;;;;26.16;40.12;100852.97;4432676;32;20398;-78
2021/07/14 02:17:18;;;;;;;5.28;4.03;;;;;;;26.19;40.19;100859.75;4429725;32;21236;-79
2021/07/14 02:19:51;;;;;;;6.90;3.87;;;;;;;26.00;40.68;100853.19;4428391;32;20076;-79
2021/07/14 02:22:17;;;;;;;9.23;4.15;;;;;;;25.94;40.99;100861.88;4427753;32;20100;-80
2021/07/14 02:24:43;;;;;;;5.57;4.25;;;;;;;25.69;41.38;100856.66;4431391;32;20096;-80
2021/07/14 02:27:10;;;;;;;20.02;9.63;;;;;;;25.79;41.21;100858.66;4425939;32;20060;-79
2021/07/14 02:29:38;;;;;;;9.93;5.10;;;;;;;25.68;41.48;100866.66;4426387;32;20199;-80
2021/07/14 02:32:05;;;;;;;6.75;4.55;;;;;;;25.81;41.50;100861.78;4429247;32;20044;-79
2021/07/14 02:34:32;;;;;;;6.22;4.30;;;;;;;25.68;41.71;100860.87;4433664;32;20056;-79
2021/07/14 02:37:00;;;;;;;8.38;5.00;;;;;;;25.71;41.71;100868.44;4429786;32;20444;-79
2021/07/14 02:39:27;;;;;;;8.15;4.93;;;;;;;25.76;41.67;100871.25;4424487;32;20400;-79
2021/07/14 02:42:00;;;;;;;6.97;4.32;;;;;;;25.74;41.71;100876.78;4419018;32;20440;-79
2021/07/14 02:44:26;;;;;;;6.97;4.28;;;;;;;25.96;41.41;100872.88;4419465;32;20060;-80
2021/07/14 02:46:56;;;;;;;8.18;4.47;;;;;;;25.63;41.97;100870.34;4420307;32;20030;-79
2021/07/14 02:49:27;;;;;;;11.52;4.82;;;;;;;25.57;42.34;100861.78;4417703;32;20103;-78
2021/07/14 02:51:55;;;;;;;7.60;4.60;;;;;;;25.60;42.44;100862.78;4421046;32;20106;-79
2021/07/14 02:54:24;;;;;;;8.20;4.62;;;;;;;25.82;41.97;100874.06;4421543;32;20503;-79
2021/07/14 02:57:00;;;;;;;9.25;4.87;;;;;;;25.81;41.77;100872.53;4417677;32;20082;-78
2021/07/14 02:59:29;;;;;;;7.65;4.75;;;;;;;25.77;42.09;100872.06;4415802;32;20057;-79
2021/07/14 03:01:56;;;;;;;7.75;4.28;;;;;;;25.77;42.08;100863.41;4414920;32;20088;-79
2021/07/14 03:04:29;;;;;;;8.88;5.00;;;;;;;25.68;42.23;100869.53;4425153;32;20385;-79
2021/07/14 03:06:56;;;;;;;7.60;5.22;;;;;;;25.75;42.12;100871.81;4419749;32;20069;-79
2021/07/14 03:09:37;;;;;;;8.35;4.97;;;;;;;25.69;42.18;100866.09;4421041;32;20068;-78
2021/07/14 03:12:06;;;;;;;8.73;4.20;;;;;;;25.68;42.25;100870.28;4415468;32;20478;-79
2021/07/14 03:14:35;;;;;;;8.48;5.30;;;;;;;25.43;42.70;100862.97;4421949;32;20033;-79
2021/07/14 03:17:01;;;;;;;11.38;5.32;;;;;;;25.68;42.30;100863.75;4421085;32;20064;-78
2021/07/14 03:19:28;;;;;;;7.90;4.75;;;;;;;25.49;42.59;100865.81;4419230;32;20501;-78
2021/07/14 03:21:55;;;;;;;7.55;5.15;;;;;;;25.61;42.50;100865.13;4417253;32;20250;-78
2021/07/14 03:24:22;;;;;;;8.88;5.47;;;;;;;25.53;42.61;100866.28;4418974;32;20029;-78
2021/07/14 03:26:48;;;;;;;7.43;5.75;;;;;;;25.60;42.67;100868.56;4420435;32;20120;-78
2021/07/14 03:29:15;;;;;;;9.65;5.47;;;;;;;25.40;42.81;100871.91;4418601;32;21228;-79
2021/07/14 03:31:41;;;;;;;7.20;4.70;;;;;;;25.53;42.66;100874.94;4420297;32;20077;-79
2021/07/14 03:34:07;;;;;;;8.15;5.00;;;;;;;25.35;42.83;100871.41;4417859;32;20504;-79
2021/07/14 03:36:33;;;;;;;11.63;5.25;;;;;;;25.44;42.61;100884.72;4420051;32;20050;-78
2021/07/14 03:39:00;;;;;;;10.63;4.72;;;;;;;25.40;42.69;100883.44;4420650;32;20455;-79
2021/07/14 03:41:27;;;;;;;10.57;4.93;;;;;;;25.59;42.45;100884.28;4418082;32;20065;-78
2021/07/14 03:43:54;;;;;;;8.40;4.60;;;;;;;25.66;42.23;100892.34;4420494;32;20033;-79
2021/07/14 03:46:20;;;;;;;7.90;5.00;;;;;;;25.71;42.08;100886.50;4422343;32;20065;-79
2021/07/14 03:48:47;;;;;;;11.00;5.32;;;;;;;25.64;42.01;100874.81;4420886;32;20069;-78
2021/07/14 03:51:17;;;;;;;8.18;5.20;;;;;;;25.85;41.85;100878.75;4417096;32;20470;-79
2021/07/14 03:53:43;;;;;;;10.18;5.05;;;;;;;25.92;41.64;100876.06;4420804;32;20025;-79
2021/07/14 03:56:09;;;;;;;6.62;4.07;;;;;;;25.64;42.05;100875.59;4420798;32;20042;-78
2021/07/14 03:58:38;;;;;;;7.07;4.65;;;;;;;25.64;41.98;100869.81;4417709;32;20103;-79
2021/07/14 04:01:04;;;;;;;9.13;4.95;;;;;;;25.66;41.95;100875.84;4418764;32;20147;-78
2021/07/14 04:03:31;;;;;;;11.68;5.30;;;;;;;25.53;42.23;100872.84;4420623;32;20081;-79
2021/07/14 04:06:01;;;;;;;10.32;5.12;;;;;;;25.60;42.16;100878.00;4420397;32;20081;-78
2021/07/14 04:08:48;;;;;;;8.63;5.43;;;;;;;25.89;41.84;100882.13;4416347;32;20025;-79
2021/07/14 04:11:16;;;;;;;11.82;6.45;;;;;;;25.96;41.64;100875.75;4416775;32;20092;-79
2021/07/14 04:13:43;;;;;;;9.43;5.60;;;;;;;25.75;42.15;100874.69;4416427;32;20080;-79
2021/07/14 04:16:08;;;;;;;9.80;5.60;;;;;;;25.67;42.29;100880.28;4419140;32;20068;-79
2021/07/14 04:18:34;;;;;;;10.18;5.15;;;;;;;25.52;42.56;100884.91;4419217;32;20053;-79
2021/07/14 04:21:00;;;;;;;8.85;5.18;;;;;;;25.38;42.94;100875.34;4421290;32;20037;-79
2021/07/14 04:23:26;;;;;;;10.65;6.37;;;;;;;25.38;42.79;100867.44;4420898;32;20037;-78
2021/07/14 04:25:52;;;;;;;10.68;5.87;;;;;;;25.44;42.70;100878.16;4418718;32;20404;-79
2021/07/14 04:28:19;;;;;;;8.55;6.20;;;;;;;25.39;42.69;100868.25;4419798;32;20095;-79
2021/07/14 04:30:45;;;;;;;7.05;5.43;;;;;;;25.60;42.44;100868.56;4418962;32;20081;-79
2021/07/14 04:33:11;;;;;;;8.93;5.10;;;;;;;25.38;42.62;100866.69;4423016;32;20378;-79
2021/07/14 04:35:39;;;;;;;10.23;5.03;;;;;;;25.44;42.15;100858.78;4420998;32;20100;-79
2021/07/14 04:38:05;;;;;;;6.60;4.72;;;;;;;25.72;42.04;100875.75;4421055;32;20085;-79
2021/07/14 04:40:31;;;;;;;7.72;4.32;;;;;;;25.58;42.04;100874.84;4416340;32;20050;-79
2021/07/14 04:42:57;;;;;;;7.15;4.05;;;;;;;25.48;42.03;100882.31;4421852;32;20033;-79
2021/07/14 04:45:22;;;;;;;5.20;3.92;;;;;;;25.57;41.70;100884.03;4417052;32;20025;-78
2021/07/14 04:47:48;;;;;;;6.47;3.67;;;;;;;25.70;41.31;100884.16;4418512;32;20453;-79
2021/07/14 04:50:14;;;;;;;6.00;2.95;;;;;;;25.55;nan;100883.81;4416921;32;20090;-79
2021/07/14 04:52:39;;;;;;;4.43;3.20;;;;;;;25.55;40.74;100889.59;4420221;32;20083;-79
2021/07/14 04:55:06;;;;;;;8.02;3.50;;;;;;;25.77;40.25;100880.69;4420066;32;20078;-79
2021/07/14 04:57:31;;;;;;;8.52;2.78;;;;;;;25.95;39.81;100882.84;4420450;32;20121;-79
2021/07/14 04:59:57;;;;;;;5.87;2.78;;;;;;;25.95;39.68;100891.50;4419470;32;20382;-79
2021/07/14 05:02:23;;;;;;;3.83;2.90;;;;;;;25.73;39.81;100886.75;4417180;32;20102;-79
2021/07/14 05:04:48;;;;;;;4.65;3.22;;;;;;;25.82;39.90;100897.94;4419024;32;20041;-79
2021/07/14 05:07:14;;;;;;;8.25;3.12;;;;;;;25.88;39.77;100903.62;4419484;32;20183;-79
2021/07/14 05:09:40;;;;;;;5.25;3.05;;;;;;;25.82;40.03;100903.69;4418628;32;20046;-79
2021/07/14 05:12:05;;;;;;;6.30;3.58;;;;;;;25.28;41.37;100903.66;4417694;32;20067;-79
2021/07/14 05:14:31;;;;;;;7.60;3.78;;;;;;;26.06;40.23;100921.03;4417868;32;20506;-79
2021/07/14 05:16:58;;;;;;;7.82;4.32;;;;;;;26.27;40.08;100924.19;4419949;32;20098;-79
2021/07/14 05:19:23;;;;;;;9.35;3.65;;;;;;;26.29;40.11;100924.44;4410641;32;20582;-79
2021/07/14 05:21:50;;;;;;;8.98;4.40;;;;;;;26.40;39.96;100918.50;4416747;32;20430;-79
2021/07/14 05:24:16;;;;;;;6.07;4.47;;;;;;;26.51;39.79;100903.94;4420110;32;20041;-79
2021/07/14 05:26:42;;;;;;;8.38;4.03;;;;;;;26.63;39.68;100897.47;4420398;32;20073;-79
2021/07/14 05:29:08;;;;;;;7.70;4.12;;;;;;;26.57;39.36;100895.97;4414556;32;20150;-79
2021/07/14 05:31:34;;;;;;;6.57;3.75;;;;;;;26.67;39.44;100905.81;4415777;32;20056;-79
2021/07/14 05:34:00;;;;;;;7.82;4.45;;;;;;;26.65;39.33;100909.25;4420547;32;20069;-79
2021/07/14 05:36:26;;;;;;;8.82;4.62;;;;;;;26.81;39.14;100910.31;4420458;32;20102;-79
2021/07/14 05:38:51;;;;;;;7.05;4.57;;;;;;;26.96;38.78;100907.72;4419368;32;20068;-79
2021/07/14 05:41:17;;;;;;;6.82;4.40;;;;;;;27.00;38.62;100916.88;4417686;32;20071;-79
2021/07/14 05:43:43;;;;;;;6.93;4.40;;;;;;;27.13;38.49;100922.69;4419714;32;20117;-78
2021/07/14 05:46:09;;;;;;;8.55;4.70;;;;;;;27.42;38.31;100927.50;4420321;32;20332;-78
2021/07/14 05:48:34;;;;;;;6.22;4.07;;;;;;;27.57;37.67;100942.22;4416562;32;20127;-78
2021/07/14 05:51:01;;;;;;;6.87;3.70;;;;;;;27.80;37.02;100931.81;4416457;32;20077;-78
2021/07/14 05:53:27;;;;;;;7.03;3.40;;;;;;;28.15;36.52;100934.31;4415257;32;20427;-78
2021/07/14 05:55:52;;;;;;;7.65;3.75;;;;;;;28.47;36.10;100934.19;4418837;32;20461;-78
2021/07/14 05:58:19;;;;;;;5.55;2.95;;;;;;;28.46;35.81;100924.72;4416302;32;20427;-78
2021/07/14 06:00:44;;;;;;;7.07;3.35;;;;;;;28.47;35.82;100925.50;4416064;32;20591;-79
2021/07/14 06:03:10;;;;;;;6.12;3.90;;;;;;;28.18;36.38;100936.09;4415475;32;20089;-78
2021/07/14 06:05:37;;;;;;;5.40;3.20;;;;;;;28.66;35.92;100941.38;4422074;32;20038;-78
2021/07/14 06:08:07;;;;;;;6.03;3.50;;;;;;;28.99;35.51;100934.81;4421152;32;20080;-78
2021/07/14 06:10:32;;;;;;;4.97;3.28;;;;;;;28.94;35.29;100946.56;4416850;32;20045;-78
2021/07/14 06:12:59;;;;;;;5.30;3.30;;;;;;;29.18;34.80;100951.28;4419360;32;20072;-78
2021/07/14 06:15:26;;;;;;;4.97;2.72;;;;;;;29.47;34.20;100944.22;4417595;32;20495;-78
2021/07/14 06:17:53;;;;;;;6.53;2.95;;;;;;;29.67;34.14;100938.47;4421161;32;20068;-78
2021/07/14 06:20:19;;;;;;;4.10;2.83;;;;;;;29.85;33.92;100946.13;4422271;32;20045;-78
2021/07/14 06:22:45;;;;;;;4.28;2.90;;;;;;;30.03;33.58;100953.81;4417860;32;20574;-78
2021/07/14 06:25:12;;;;;;;4.55;2.87;;;;;;;30.08;33.55;100952.09;4416635;32;20038;-79
2021/07/14 06:27:39;;;;;;;4.18;2.67;;;;;;;30.24;33.35;100945.84;4419931;32;20072;-78
2021/07/14 06:30:09;;;;;;;4.00;2.40;;;;;;;30.29;33.12;100944.16;4415059;32;20169;-78
2021/07/14 06:32:35;;;;;;;5.65;2.78;;;;;;;30.21;33.42;100952.00;4416223;32;20086;-78
2021/07/14 06:35:01;;;;;;;8.10;2.95;;;;;;;30.77;32.64;100954.88;4409866;32;20034;-78
2021/07/14 06:37:27;;;;;;;5.60;2.40;;;;;;;30.33;33.22;100942.44;4413682;32;20126;-79
2021/07/14 06:39:53;;;;;;;5.55;2.47;;;;;;;30.64;32.79;100949.94;4411588;32;20060;-79
2021/07/14 06:42:19;;;;;;;4.60;2.95;;;;;;;30.70;32.66;100953.47;4406434;32;20042;-79
2021/07/14 06:44:44;;;;;;;4.55;2.53;;;;;;;30.69;32.80;100959.84;4412654;32;20116;-79
2021/07/14 06:47:11;;;;;;;4.32;2.53;;;;;;;30.74;32.57;100958.94;4415429;32;20041;-78
2021/07/14 06:49:37;;;;;;;4.12;2.72;;;;;;;30.73;32.65;100960.25;4414977;32;20621;-79
2021/07/14 06:52:02;;;;;;;4.87;2.42;;;;;;;30.67;32.80;100948.78;4412410;32;20093;-79
2021/07/14 06:54:28;;;;;;;4.45;2.60;;;;;;;30.75;32.65;100964.16;4420449;32;20132;-79
2021/07/14 06:56:54;;;;;;;5.72;2.50;;;;;;;30.61;32.81;100971.44;4413355;32;20142;-79
2021/07/14 06:59:23;;;;;;;3.40;2.33;;;;;;;30.66;32.83;100972.59;4407045;32;20729;-80
2021/07/14 07:01:49;;;;;;;5.20;2.90;;;;;;;30.83;32.55;100973.69;4407432;32;20143;-78
2021/07/14 07:04:15;;;;;;;7.25;2.92;;;;;;;30.80;32.67;100974.06;4408729;32;20129;-80
2021/07/14 07:06:40;;;;;;;6.80;2.80;;;;;;;30.86;32.46;100974.66;4402542;32;20565;-81
2021/07/14 07:09:06;;;;;;;6.45;2.53;;;;;;;30.71;32.94;100977.50;4408591;32;20112;-77
2021/07/14 07:11:36;;;;;;;4.57;2.92;;;;;;;30.79;32.54;100978.31;4407389;32;20081;-78
2021/07/14 07:14:02;;;;;;;4.22;2.70;;;;;;;30.74;32.75;100977.13;4407335;32;20084;-80
2021/07/14 07:16:27;;;;;;;7.18;3.25;;;;;;;30.98;32.62;100978.75;4406684;32;20069;-80
2021/07/14 07:18:53;;;;;;;4.07;2.60;;;;;;;30.66;32.81;100964.69;4407237;32;20065;-80
2021/07/14 07:21:19;;;;;;;4.25;2.65;;;;;;;30.90;32.45;100960.53;4407712;32;20096;-81
2021/07/14 07:23:46;;;;;;;5.78;2.70;;;;;;;30.44;33.44;100962.41;4407662;32;20176;-79
2021/07/14 07:26:13;;;;;;;5.55;3.15;;;;;;;30.79;33.06;100972.50;4401541;32;20088;-79
2021/07/14 07:28:41;;;;;;;6.43;2.90;;;;;;;31.03;32.66;100963.28;4398223;32;20088;-78
2021/07/14 07:31:09;;;;;;;4.28;2.87;;;;;;;30.41;33.64;100971.50;4400825;32;20450;-81
2021/07/14 07:33:37;;;;;;;3.83;3.35;;;;;;;30.29;33.86;100981.88;4403359;32;20073;-84
2021/07/14 07:36:03;;;;;;;4.65;2.83;;;;;;;30.56;33.52;100980.31;4402990;32;20046;-82
2021/07/14 07:38:30;;;;;;;5.65;3.30;;;;;;;30.54;33.56;100971.38;4401532;32;20127;-82
2021/07/14 07:40:57;;;;;;;9.05;3.33;;;;;;;30.57;33.36;100967.34;4402283;32;20141;-80
2021/07/14 07:43:24;;;;;;;8.25;3.08;;;;;;;30.59;33.35;100973.34;4404351;32;20439;-78
2021/07/14 07:45:51;;;;;;;4.70;2.85;;;;;;;30.96;33.09;100987.31;4403498;32;20086;-81
2021/07/14 07:48:16;;;;;;;5.28;3.00;;;;;;;30.80;33.32;100976.97;4398227;32;20433;-79
2021/07/14 07:50:43;;;;;;;3.28;2.85;;;;;;;30.91;33.04;100979.53;4403273;32;20034;-84
2021/07/14 07:53:09;;;;;;;9.50;3.47;;;;;;;31.28;32.49;100978.09;4400925;32;20084;-78
2021/07/14 07:55:35;;;;;;;6.43;3.50;;;;;;;31.21;32.84;100990.47;4403945;32;20105;-80
2021/07/14 07:58:01;;;;;;;5.00;3.33;;;;;;;31.31;32.45;100971.91;4405979;32;20057;-79
2021/07/14 08:00:27;;;;;;;8.15;3.42;;;;;;;31.53;32.24;100985.72;4402263;32;20474;-77
2021/07/14 08:02:53;;;;;;;9.38;3.37;;;;;;;31.34;32.59;100978.69;4393679;32;20054;-79
2021/07/14 08:05:19;;;;;;;6.15;3.20;;;;;;;31.46;32.30;100980.69;4402551;32;20085;-78
2021/07/14 08:07:45;;;;;;;6.07;3.67;;;;;;;31.45;32.28;100984.94;4404210;32;20646;-79
2021/07/14 08:10:11;;;;;;;6.85;3.53;;;;;;;31.60;32.28;100990.00;4404216;32;20085;-78
2021/07/14 08:12:38;;;;;;;4.30;3.42;;;;;;;31.75;31.92;100990.03;4403445;32;20426;-78
2021/07/14 08:15:06;;;;;;;7.95;3.03;;;;;;;31.94;31.67;100987.53;4402967;32;20062;-79
2021/07/14 08:17:31;;;;;;;6.65;2.90;;;;;;;32.39;30.98;100999.13;4402285;32;20076;-76
2021/07/14 08:19:57;;;;;;;6.70;3.58;;;;;;;31.78;31.83;101001.25;4404168;32;20101;-77
2021/07/14 08:22:23;;;;;;;9.18;3.40;;;;;;;31.73;31.83;100998.53;4403617;32;20068;-79
2021/07/14 08:24:48;;;;;;;3.28;2.87;;;;;;;31.73;32.03;100992.72;4404127;32;20141;-76
2021/07/14 08:27:14;;;;;;;6.03;3.37;;;;;;;31.62;32.22;100996.00;4403908;32;20103;-76
2021/07/14 08:29:40;;;;;;;5.80;3.40;;;;;;;32.26;31.37;101002.22;4405334;32;20718;-81
2021/07/14 08:32:06;;;;;;;5.43;3.50;;;;;;;31.72;32.09;101012.31;4400988;32;20119;-79
2021/07/14 08:34:32;;;;;;;4.43;3.45;;;;;;;31.91;31.82;100998.19;4404796;32;20075;-80
2021/07/14 08:36:59;;;;;;;4.62;3.55;;;;;;;31.75;31.89;100993.69;4408270;32;20339;-80
2021/07/14 08:39:27;;;;;;;5.72;3.30;;;;;;;31.89;31.77;101000.91;4401353;32;20058;-77
2021/07/14 08:41:55;;;;;;;3.35;3.05;;;;;;;32.16;31.36;101001.28;4399935;32;20089;-80
2021/07/14 08:44:21;;;;;;;6.35;3.33;;;;;;;32.27;31.37;101000.88;4402132;32;20074;-77
2021/07/14 08:46:48;;;;;;;7.50;3.20;;;;;;;32.03;31.67;101010.22;4402270;32;20100;-79
2021/07/14 08:49:14;;;;;;;4.57;3.10;;;;;;;32.69;30.69;101010.72;4405182;32;20060;-80
2021/07/14 08:51:42;;;;;;;5.70;3.40;;;;;;;32.32;31.12;101018.16;4405799;32;20150;-77
2021/07/14 08:54:09;;;;;;;5.20;3.42;;;;;;;33.01;30.41;101015.88;4407185;32;20058;-77
2021/07/14 08:56:35;;;;;;;7.75;3.20;;;;;;;32.49;30.92;101023.41;4404581;32;20630;-77
2021/07/14 08:59:01;;;;;;;4.30;3.53;;;;;;;31.85;31.61;101026.72;4407792;32;20045;-77
2021/07/14 09:01:27;;;;;;;7.28;3.20;;;;;;;31.93;31.67;101017.97;4408390;32;20084;-79
2021/07/14 09:03:53;;;;;;;4.85;3.08;;;;;;;32.04;31.51;101011.78;4404879;32;20426;-83
2021/07/14 09:06:19;;;;;;;5.00;3.40;;;;;;;32.05;31.38;101011.19;4402560;32;20107;-77
2021/07/14 09:08:44;;;;;;;7.50;3.20;;;;;;;31.97;31.65;101004.59;4404119;32;20085;-84
2021/07/14 09:11:11;;;;;;;4.50;3.00;;;;;;;32.29;31.21;101010.59;4409134;32;20082;-82
2021/07/14 09:13:40;;;;;;;4.32;3.17;;;;;;;32.98;30.17;101012.00;4398960;32;20153;-81
2021/07/14 09:16:07;;;;;;;5.60;2.90;;;;;;;32.26;30.96;100996.41;4405165;32;20106;-80
2021/07/14 09:18:33;;;;;;;5.15;3.40;;;;;;;32.83;30.46;100999.59;4400645;32;20166;-82
2021/07/14 09:21:02;;;;;;;7.87;2.67;;;;;;;32.82;30.35;100998.81;4403212;32;20069;-84
2021/07/14 09:23:30;;;;;;;5.20;2.92;;;;;;;33.63;29.50;100996.09;4403605;32;20053;-83
2021/07/14 09:25:59;;;;;;;4.82;2.70;;;;;;;33.99;29.06;101004.41;4401144;32;20100;-84
2021/07/14 09:28:28;;;;;;;3.65;2.78;;;;;;;34.65;27.91;101010.19;4402926;32;20170;-83
2021/07/14 09:30:58;;;;;;;6.22;2.83;;;;;;;35.19;27.42;101023.56;4403265;32;20081;-82
2021/07/14 09:33:26;;;;;;;4.05;2.75;;;;;;;35.29;26.97;101012.69;4403904;32;20070;-79
2021/07/14 09:35:53;;;;;;;4.62;2.83;;;;;;;35.53;26.75;101014.72;4401750;32;20037;-81
2021/07/14 09:38:22;;;;;;;5.00;2.60;;;;;;;35.68;26.28;101014.47;4405444;32;20148;-84
2021/07/14 09:40:51;;;;;;;10.65;2.80;;;;;;;35.61;26.35;101000.72;4403663;32;20076;-82
2021/07/14 09:43:29;;;;;;;4.05;2.58;;;;;;;36.14;25.53;101002.81;4405282;32;20094;-84
2021/07/14 09:48:37;;;;;;;4.40;2.62;;;;;;;37.74;23.92;101009.28;3970222;32;15026221;-82
2021/07/14 09:53:49;;;;;;;4.97;2.70;;;;;;;37.82;23.63;101017.88;3946713;32;15726496;-82
2021/07/14 09:59:08;;;;;;;7.10;2.78;;;;;;;35.43;26.87;101001.41;3936492;32;15722610;-80
2021/07/14 10:01:43;;;;;;;8.23;3.60;;;;;;;35.43;26.87;101001.41;4409450;32;20065;-80
2021/07/14 10:04:12;;;;;;;3.67;2.90;;;;;;;34.33;27.67;100995.69;4412681;32;20421;-81
2021/07/14 10:06:38;;;;;;;3.87;2.60;;;;;;;34.19;28.05;101009.06;4412056;32;20606;-81
2021/07/14 10:09:05;;;;;;;4.80;2.35;;;;;;;33.95;28.08;101001.88;4398669;32;20845;-83
2021/07/14 10:11:32;;;;;;;4.22;2.67;;;;;;;33.91;27.99;100997.84;4391205;32;20705;-86
2021/07/14 10:19:14;;;;;;;2.30;1.95;;;;;;;32.95;28.98;101015.31;3975316;32;15024211;-82
2021/07/14 10:21:43;;;;;;;4.05;2.53;;;;;;;32.95;28.98;101015.31;4423114;32;20095;-84
2021/07/14 10:24:12;;;;;;;2.80;2.28;;;;;;;32.86;29.23;101002.16;4421111;32;20096;-81
2021/07/14 10:26:40;;;;;;;7.22;2.40;;;;;;;32.86;29.19;101004.28;4423242;32;20069;-82
2021/07/14 10:29:06;;;;;;;5.22;2.40;;;;;;;33.05;28.91;101004.56;4425232;32;20071;-81
2021/07/14 10:31:35;;;;;;;3.28;2.40;;;;;;;33.88;28.07;101010.72;4425306;32;20063;-80
2021/07/14 10:34:03;;;;;;;4.45;2.33;;;;;;;34.49;26.92;101005.88;4425493;32;20077;-79
2021/07/14 10:36:31;;;;;;;4.90;2.55;;;;;;;34.03;27.40;100998.91;4424895;32;20585;-80
2021/07/14 10:39:02;;;;;;;3.15;2.17;;;;;;;34.35;27.01;101008.31;4420648;32;20171;-81
2021/07/14 10:41:30;;;;;;;4.82;2.15;;;;;;;34.93;26.51;101003.81;4422760;32;20157;-79
2021/07/14 10:43:58;;;;;;;4.05;2.33;;;;;;;35.25;26.08;100994.78;4420535;32;20034;-79
2021/07/14 10:46:25;;;;;;;3.58;1.90;;;;;;;36.30;25.19;100998.25;4426403;32;20425;-81
2021/07/14 10:48:53;;;;;;;5.35;2.17;;;;;;;36.55;24.71;101004.59;4422175;32;20045;-80
2021/07/14 10:51:20;;;;;;;5.62;2.05;;;;;;;36.67;24.28;101014.34;4420771;32;20139;-79
2021/07/14 10:54:00;;;;;;;3.00;1.70;;;;;;;37.14;23.70;101006.91;4420454;32;20034;-82
2021/07/14 10:56:28;;;;;;;4.85;2.08;;;;;;;37.46;23.10;101021.09;4428136;32;20604;-80
2021/07/14 10:58:55;;;;;;;3.50;1.98;;;;;;;37.60;22.97;101017.03;4425026;32;20073;-81
2021/07/14 11:01:41;;;;;;;3.92;1.73;;;;;;;38.06;22.55;101015.94;4418703;32;20106;-81
2021/07/14 11:04:12;;;;;;;3.62;1.90;;;;;;;38.14;22.01;101013.59;4410610;32;20082;-83
2021/07/14 11:06:54;;;;;;;6.40;1.80;;;;;;;38.36;21.71;101010.06;4408989;32;20156;-83
2021/07/14 11:09:41;;;;;;;3.08;1.50;;;;;;;38.51;20.59;101015.53;4408254;32;20238;-84
2021/07/14 11:12:11;;;;;;;4.57;2.00;;;;;;;38.51;21.05;101003.75;4410580;32;20061;-85
2021/07/14 11:14:42;;;;;;;5.43;1.75;;;;;;;38.69;21.13;101013.88;4412738;32;20069;-87
2021/07/14 11:17:11;;;;;;;5.18;1.80;;;;;;;38.81;21.36;101014.69;4410547;32;20200;-85
2021/07/14 11:19:53;;;;;;;5.75;1.80;;;;;;;38.30;22.04;101012.56;4410165;32;20720;-85
2021/07/14 11:22:39;;;;;;;5.82;1.65;;;;;;;40.38;19.80;101011.06;4411709;32;20037;-83
2021/07/14 11:25:07;;;;;;;8.27;1.60;;;;;;;40.66;19.43;101020.88;4412946;32;20050;-87
2021/07/14 11:35:43;;;;;;;2.78;1.73;;;;;;;42.24;18.17;101021.25;3970977;32;15026699;-81
2021/07/14 11:38:15;;;;;;;3.95;1.73;;;;;;;42.24;18.17;101021.25;4431163;32;20069;-82
2021/07/14 11:40:45;;;;;;;4.18;1.70;;;;;;;41.72;18.55;101020.53;4430912;32;20483;-80
2021/07/14 11:45:50;;;;;;;2.37;1.80;;;;;;;42.61;18.01;101030.66;3947978;32;15726203;-81
2021/07/14 11:51:20;;;;;;;3.97;1.70;;;;;;;42.85;17.86;101048.97;3952946;32;15724317;-78
2021/07/14 11:53:48;;;;;;;5.50;1.80;;;;;;;42.85;17.86;101048.97;4429398;32;21131;-83
2021/07/14 11:59:18;;;;;;;3.03;1.60;;;;;;;42.89;17.30;101038.09;3974864;32;15025477;-80
2021/07/14 12:01:51;;;;;;;4.53;1.60;;;;;;;42.89;17.30;101038.09;4416841;32;20045;-81
2021/07/14 12:04:18;;;;;;;2.40;1.70;;;;;;;41.69;18.11;101030.69;4413857;32;20425;-80
2021/07/14 12:09:27;;;;;;;2.75;1.73;;;;;;;42.53;17.54;101033.22;3956700;32;15023274;-82
2021/07/14 12:14:40;;;;;;;3.47;1.52;;;;;;;40.63;19.32;101040.63;3974810;32;15023097;-78
2021/07/14 12:17:18;;;;;;;1.92;1.30;;;;;;;40.63;19.32;101040.63;4428508;32;20041;-78
2021/07/14 12:22:24;;;;;;;3.23;1.47;;;;;;;40.34;19.33;101025.53;3985323;31;15015491;-82
2021/07/14 12:24:57;;;;;;;6.05;1.80;;;;;;;40.34;19.33;101025.53;4444972;32;20552;-80
2021/07/14 12:27:26;;;;;;;2.17;1.50;;;;;;;39.92;19.68;101022.09;4446644;32;20081;-83